sensor_id;sensor_type;location;lat;lon;timestamp;P1;durP1;ratioP1;P2;durP2;ratioP2
4963;SDS011;2497;47.410;9.740;2023-03-23T00:01:48;10.00;;;2.87;;
4963;SDS011;2497;47.410;9.740;2023-03-23T00:04:15;6.30;;;2.77;;
4963;SDS011;2497;47.410;9.740;2023-03-23T00:06:43;7.93;;;3.27;;
4963;SDS011;2497;47.410;9.740;2023-03-23T00:09:11;4.50;;;3.10;;
4963;SDS011;2497;47.410;9.740;2023-03-23T00:11:40;7.67;;;3.33;;
4963;SDS011;2497;47.410;9.740;2023-03-23T00:14:08;5.13;;;3.23;;
4963;SDS011;2497;47.410;9.740;2023-03-23T00:16:38;9.60;;;3.50;;
4963;SDS011;2497;47.410;9.740;2023-03-23T00:19:09;11.80;;;4.70;;
4963;SDS011;2497;47.410;9.740;2023-03-23T00:21:38;8.10;;;4.17;;
4963;SDS011;2497;47.410;9.740;2023-03-23T00:24:07;17.50;;;3.87;;
4963;SDS011;2497;47.410;9.740;2023-03-23T00:26:36;9.53;;;3.70;;
4963;SDS011;2497;47.410;9.740;2023-03-23T00:29:06;8.90;;;4.03;;
4963;SDS011;2497;47.410;9.740;2023-03-23T00:31:35;4.47;;;3.20;;
4963;SDS011;2497;47.410;9.740;2023-03-23T00:34:03;15.37;;;4.50;;
4963;SDS011;2497;47.410;9.740;2023-03-23T00:36:32;7.87;;;3.90;;
4963;SDS011;2497;47.410;9.740;2023-03-23T00:39:00;8.63;;;3.67;;
4963;SDS011;2497;47.410;9.740;2023-03-23T00:41:28;6.40;;;3.83;;
4963;SDS011;2497;47.410;9.740;2023-03-23T00:43:56;8.63;;;4.20;;
4963;SDS011;2497;47.410;9.740;2023-03-23T00:46:25;5.50;;;3.77;;
4963;SDS011;2497;47.410;9.740;2023-03-23T00:48:53;9.60;;;4.07;;
4963;SDS011;2497;47.410;9.740;2023-03-23T00:51:22;7.63;;;3.77;;
4963;SDS011;2497;47.410;9.740;2023-03-23T00:53:51;15.33;;;4.10;;
4963;SDS011;2497;47.410;9.740;2023-03-23T00:56:18;6.73;;;3.53;;
4963;SDS011;2497;47.410;9.740;2023-03-23T00:58:45;5.73;;;3.50;;
4963;SDS011;2497;47.410;9.740;2023-03-23T01:01:12;7.00;;;3.47;;
4963;SDS011;2497;47.410;9.740;2023-03-23T01:03:39;13.20;;;3.47;;
4963;SDS011;2497;47.410;9.740;2023-03-23T01:06:07;8.43;;;3.30;;
4963;SDS011;2497;47.410;9.740;2023-03-23T01:08:39;5.33;;;2.90;;
4963;SDS011;2497;47.410;9.740;2023-03-23T01:11:12;7.07;;;4.30;;
4963;SDS011;2497;47.410;9.740;2023-03-23T01:13:40;6.10;;;3.43;;
4963;SDS011;2497;47.410;9.740;2023-03-23T01:16:08;6.23;;;3.40;;
4963;SDS011;2497;47.410;9.740;2023-03-23T01:18:36;5.00;;;3.40;;
4963;SDS011;2497;47.410;9.740;2023-03-23T01:21:04;5.90;;;3.50;;
4963;SDS011;2497;47.410;9.740;2023-03-23T01:23:32;7.70;;;3.67;;
4963;SDS011;2497;47.410;9.740;2023-03-23T01:26:02;5.00;;;3.07;;
4963;SDS011;2497;47.410;9.740;2023-03-23T01:28:31;8.33;;;3.67;;
4963;SDS011;2497;47.410;9.740;2023-03-23T01:30:59;5.73;;;2.87;;
4963;SDS011;2497;47.410;9.740;2023-03-23T01:33:27;8.63;;;4.07;;
4963;SDS011;2497;47.410;9.740;2023-03-23T01:35:55;6.10;;;3.30;;
4963;SDS011;2497;47.410;9.740;2023-03-23T01:38:22;4.80;;;3.10;;
4963;SDS011;2497;47.410;9.740;2023-03-23T01:40:49;6.30;;;3.90;;
4963;SDS011;2497;47.410;9.740;2023-03-23T01:43:16;9.60;;;4.00;;
4963;SDS011;2497;47.410;9.740;2023-03-23T01:45:45;7.63;;;3.60;;
4963;SDS011;2497;47.410;9.740;2023-03-23T01:48:13;5.70;;;3.40;;
4963;SDS011;2497;47.410;9.740;2023-03-23T01:50:46;6.20;;;3.57;;
4963;SDS011;2497;47.410;9.740;2023-03-23T01:53:18;5.97;;;3.43;;
4963;SDS011;2497;47.410;9.740;2023-03-23T01:55:45;5.07;;;3.40;;
4963;SDS011;2497;47.410;9.740;2023-03-23T01:58:16;11.97;;;3.97;;
4963;SDS011;2497;47.410;9.740;2023-03-23T02:00:46;4.13;;;3.10;;
4963;SDS011;2497;47.410;9.740;2023-03-23T02:03:14;6.53;;;3.70;;
4963;SDS011;2497;47.410;9.740;2023-03-23T02:05:42;6.73;;;3.97;;
4963;SDS011;2497;47.410;9.740;2023-03-23T02:08:10;7.47;;;3.67;;
4963;SDS011;2497;47.410;9.740;2023-03-23T02:10:41;6.80;;;3.83;;
4963;SDS011;2497;47.410;9.740;2023-03-23T02:13:09;8.73;;;4.17;;
4963;SDS011;2497;47.410;9.740;2023-03-23T02:15:40;7.77;;;4.37;;
4963;SDS011;2497;47.410;9.740;2023-03-23T02:18:22;8.37;;;4.87;;
4963;SDS011;2497;47.410;9.740;2023-03-23T02:27:20;9.20;;;5.10;;
4963;SDS011;2497;47.410;9.740;2023-03-23T02:30:15;11.53;;;5.30;;
4963;SDS011;2497;47.410;9.740;2023-03-23T02:35:56;8.50;;;4.60;;
4963;SDS011;2497;47.410;9.740;2023-03-23T02:38:30;6.53;;;3.90;;
4963;SDS011;2497;47.410;9.740;2023-03-23T02:41:01;5.10;;;3.70;;
4963;SDS011;2497;47.410;9.740;2023-03-23T02:43:30;8.20;;;4.40;;
4963;SDS011;2497;47.410;9.740;2023-03-23T02:46:04;8.23;;;4.30;;
4963;SDS011;2497;47.410;9.740;2023-03-23T02:48:35;6.50;;;4.50;;
4963;SDS011;2497;47.410;9.740;2023-03-23T02:51:05;13.83;;;4.50;;
4963;SDS011;2497;47.410;9.740;2023-03-23T02:53:36;10.77;;;4.37;;
4963;SDS011;2497;47.410;9.740;2023-03-23T02:56:06;10.00;;;3.93;;
4963;SDS011;2497;47.410;9.740;2023-03-23T02:58:36;12.57;;;4.53;;
4963;SDS011;2497;47.410;9.740;2023-03-23T03:01:14;7.50;;;4.10;;
4963;SDS011;2497;47.410;9.740;2023-03-23T03:04:00;7.33;;;4.00;;
4963;SDS011;2497;47.410;9.740;2023-03-23T03:06:32;7.87;;;3.70;;
4963;SDS011;2497;47.410;9.740;2023-03-23T03:09:05;6.70;;;4.03;;
4963;SDS011;2497;47.410;9.740;2023-03-23T03:11:41;9.03;;;4.20;;
4963;SDS011;2497;47.410;9.740;2023-03-23T03:14:13;5.83;;;3.97;;
4963;SDS011;2497;47.410;9.740;2023-03-23T03:16:46;6.83;;;4.07;;
4963;SDS011;2497;47.410;9.740;2023-03-23T03:19:22;6.23;;;4.40;;
4963;SDS011;2497;47.410;9.740;2023-03-23T03:21:53;9.30;;;4.40;;
4963;SDS011;2497;47.410;9.740;2023-03-23T03:24:23;7.30;;;4.10;;
4963;SDS011;2497;47.410;9.740;2023-03-23T03:26:54;6.57;;;4.23;;
4963;SDS011;2497;47.410;9.740;2023-03-23T03:29:26;5.10;;;3.60;;
4963;SDS011;2497;47.410;9.740;2023-03-23T03:31:56;5.70;;;4.23;;
4963;SDS011;2497;47.410;9.740;2023-03-23T03:34:27;10.13;;;4.17;;
4963;SDS011;2497;47.410;9.740;2023-03-23T03:36:57;5.03;;;3.17;;
4963;SDS011;2497;47.410;9.740;2023-03-23T03:39:26;11.63;;;4.13;;
4963;SDS011;2497;47.410;9.740;2023-03-23T03:41:54;8.40;;;3.93;;
4963;SDS011;2497;47.410;9.740;2023-03-23T03:44:21;7.47;;;4.67;;
4963;SDS011;2497;47.410;9.740;2023-03-23T03:46:48;7.47;;;4.30;;
4963;SDS011;2497;47.410;9.740;2023-03-23T03:49:15;8.97;;;4.30;;
4963;SDS011;2497;47.410;9.740;2023-03-23T03:51:44;9.20;;;4.67;;
4963;SDS011;2497;47.410;9.740;2023-03-23T03:54:11;5.90;;;4.13;;
4963;SDS011;2497;47.410;9.740;2023-03-23T03:56:38;7.97;;;3.90;;
4963;SDS011;2497;47.410;9.740;2023-03-23T03:59:06;6.10;;;4.07;;
4963;SDS011;2497;47.410;9.740;2023-03-23T04:01:35;8.90;;;4.67;;
4963;SDS011;2497;47.410;9.740;2023-03-23T04:04:03;8.50;;;3.97;;
4963;SDS011;2497;47.410;9.740;2023-03-23T04:06:32;7.17;;;4.27;;
4963;SDS011;2497;47.410;9.740;2023-03-23T04:09:02;7.50;;;4.37;;
4963;SDS011;2497;47.410;9.740;2023-03-23T04:11:32;7.17;;;4.23;;
4963;SDS011;2497;47.410;9.740;2023-03-23T04:13:59;7.23;;;4.10;;
4963;SDS011;2497;47.410;9.740;2023-03-23T04:16:27;8.20;;;4.40;;
4963;SDS011;2497;47.410;9.740;2023-03-23T04:18:55;8.60;;;4.97;;
4963;SDS011;2497;47.410;9.740;2023-03-23T04:21:23;6.60;;;4.20;;
4963;SDS011;2497;47.410;9.740;2023-03-23T04:23:54;8.80;;;4.57;;
4963;SDS011;2497;47.410;9.740;2023-03-23T04:26:25;10.90;;;4.30;;
4963;SDS011;2497;47.410;9.740;2023-03-23T04:28:53;8.50;;;4.87;;
4963;SDS011;2497;47.410;9.740;2023-03-23T04:31:21;7.10;;;4.33;;
4963;SDS011;2497;47.410;9.740;2023-03-23T04:33:49;7.97;;;4.70;;
4963;SDS011;2497;47.410;9.740;2023-03-23T04:36:18;8.23;;;4.83;;
4963;SDS011;2497;47.410;9.740;2023-03-23T04:38:47;12.97;;;5.63;;
4963;SDS011;2497;47.410;9.740;2023-03-23T04:41:19;7.67;;;5.23;;
4963;SDS011;2497;47.410;9.740;2023-03-23T04:43:48;10.63;;;6.40;;
4963;SDS011;2497;47.410;9.740;2023-03-23T04:46:17;13.40;;;5.77;;
4963;SDS011;2497;47.410;9.740;2023-03-23T04:48:46;8.20;;;4.90;;
4963;SDS011;2497;47.410;9.740;2023-03-23T04:51:13;8.30;;;4.70;;
4963;SDS011;2497;47.410;9.740;2023-03-23T04:53:41;7.83;;;4.50;;
4963;SDS011;2497;47.410;9.740;2023-03-23T04:56:08;12.20;;;5.13;;
4963;SDS011;2497;47.410;9.740;2023-03-23T04:58:35;10.03;;;5.47;;
4963;SDS011;2497;47.410;9.740;2023-03-23T05:01:06;11.97;;;5.20;;
4963;SDS011;2497;47.410;9.740;2023-03-23T05:03:33;10.60;;;4.90;;
4963;SDS011;2497;47.410;9.740;2023-03-23T05:06:01;9.43;;;5.23;;
4963;SDS011;2497;47.410;9.740;2023-03-23T05:08:28;11.20;;;5.30;;
4963;SDS011;2497;47.410;9.740;2023-03-23T05:10:56;9.20;;;4.70;;
4963;SDS011;2497;47.410;9.740;2023-03-23T05:13:27;8.97;;;4.83;;
4963;SDS011;2497;47.410;9.740;2023-03-23T05:15:55;8.37;;;4.63;;
4963;SDS011;2497;47.410;9.740;2023-03-23T05:18:23;8.60;;;4.90;;
4963;SDS011;2497;47.410;9.740;2023-03-23T05:20:51;10.97;;;4.30;;
4963;SDS011;2497;47.410;9.740;2023-03-23T05:23:18;9.50;;;5.07;;
4963;SDS011;2497;47.410;9.740;2023-03-23T05:25:52;9.67;;;4.40;;
4963;SDS011;2497;47.410;9.740;2023-03-23T05:28:19;9.50;;;4.80;;
4963;SDS011;2497;47.410;9.740;2023-03-23T05:30:47;14.33;;;5.83;;
4963;SDS011;2497;47.410;9.740;2023-03-23T05:33:14;8.17;;;4.60;;
4963;SDS011;2497;47.410;9.740;2023-03-23T05:35:43;7.70;;;5.10;;
4963;SDS011;2497;47.410;9.740;2023-03-23T05:38:12;9.60;;;4.27;;
4963;SDS011;2497;47.410;9.740;2023-03-23T05:40:39;7.73;;;5.10;;
4963;SDS011;2497;47.410;9.740;2023-03-23T05:43:07;10.03;;;5.00;;
4963;SDS011;2497;47.410;9.740;2023-03-23T05:45:35;7.33;;;4.80;;
4963;SDS011;2497;47.410;9.740;2023-03-23T05:48:02;9.30;;;4.90;;
4963;SDS011;2497;47.410;9.740;2023-03-23T05:50:29;8.57;;;4.70;;
4963;SDS011;2497;47.410;9.740;2023-03-23T05:52:58;10.20;;;4.50;;
4963;SDS011;2497;47.410;9.740;2023-03-23T05:55:26;10.87;;;4.90;;
4963;SDS011;2497;47.410;9.740;2023-03-23T05:57:53;9.87;;;5.47;;
4963;SDS011;2497;47.410;9.740;2023-03-23T06:00:21;15.90;;;5.93;;
4963;SDS011;2497;47.410;9.740;2023-03-23T06:02:48;15.07;;;5.93;;
4963;SDS011;2497;47.410;9.740;2023-03-23T06:05:17;13.10;;;6.40;;
4963;SDS011;2497;47.410;9.740;2023-03-23T06:07:44;13.40;;;5.67;;
4963;SDS011;2497;47.410;9.740;2023-03-23T06:10:13;12.80;;;6.83;;
4963;SDS011;2497;47.410;9.740;2023-03-23T06:12:40;16.43;;;5.87;;
4963;SDS011;2497;47.410;9.740;2023-03-23T06:15:07;10.63;;;5.97;;
4963;SDS011;2497;47.410;9.740;2023-03-23T06:17:36;14.47;;;6.37;;
4963;SDS011;2497;47.410;9.740;2023-03-23T06:20:03;16.13;;;5.90;;
4963;SDS011;2497;47.410;9.740;2023-03-23T06:22:35;13.10;;;5.90;;
4963;SDS011;2497;47.410;9.740;2023-03-23T06:25:03;16.57;;;6.47;;
4963;SDS011;2497;47.410;9.740;2023-03-23T06:27:32;9.33;;;4.90;;
4963;SDS011;2497;47.410;9.740;2023-03-23T06:30:00;7.80;;;5.57;;
4963;SDS011;2497;47.410;9.740;2023-03-23T06:32:28;7.47;;;5.13;;
4963;SDS011;2497;47.410;9.740;2023-03-23T06:34:57;11.73;;;6.23;;
4963;SDS011;2497;47.410;9.740;2023-03-23T06:37:25;13.70;;;5.70;;
4963;SDS011;2497;47.410;9.740;2023-03-23T06:39:52;8.80;;;5.63;;
4963;SDS011;2497;47.410;9.740;2023-03-23T06:42:19;12.73;;;5.10;;
4963;SDS011;2497;47.410;9.740;2023-03-23T06:44:50;11.30;;;4.83;;
4963;SDS011;2497;47.410;9.740;2023-03-23T06:47:21;10.27;;;4.97;;
4963;SDS011;2497;47.410;9.740;2023-03-23T06:49:49;9.00;;;4.80;;
4963;SDS011;2497;47.410;9.740;2023-03-23T06:52:16;9.40;;;4.63;;
4963;SDS011;2497;47.410;9.740;2023-03-23T06:54:43;9.20;;;3.97;;
4963;SDS011;2497;47.410;9.740;2023-03-23T06:57:10;13.43;;;5.27;;
4963;SDS011;2497;47.410;9.740;2023-03-23T06:59:37;13.17;;;5.00;;
4963;SDS011;2497;47.410;9.740;2023-03-23T07:02:08;18.90;;;5.80;;
4963;SDS011;2497;47.410;9.740;2023-03-23T07:04:36;8.73;;;4.57;;
4963;SDS011;2497;47.410;9.740;2023-03-23T07:07:04;9.13;;;4.27;;
4963;SDS011;2497;47.410;9.740;2023-03-23T07:09:31;13.40;;;4.80;;
4963;SDS011;2497;47.410;9.740;2023-03-23T07:12:01;11.27;;;4.20;;
4963;SDS011;2497;47.410;9.740;2023-03-23T07:14:28;12.00;;;6.23;;
4963;SDS011;2497;47.410;9.740;2023-03-23T07:16:55;8.80;;;5.10;;
4963;SDS011;2497;47.410;9.740;2023-03-23T07:19:24;8.40;;;5.03;;
4963;SDS011;2497;47.410;9.740;2023-03-23T07:21:51;7.93;;;4.90;;
4963;SDS011;2497;47.410;9.740;2023-03-23T07:24:18;10.93;;;5.60;;
4963;SDS011;2497;47.410;9.740;2023-03-23T07:26:45;12.20;;;6.10;;
4963;SDS011;2497;47.410;9.740;2023-03-23T07:29:12;11.93;;;5.60;;
4963;SDS011;2497;47.410;9.740;2023-03-23T07:31:40;20.30;;;6.90;;
4963;SDS011;2497;47.410;9.740;2023-03-23T07:34:07;13.50;;;6.30;;
4963;SDS011;2497;47.410;9.740;2023-03-23T07:36:36;11.63;;;6.27;;
4963;SDS011;2497;47.410;9.740;2023-03-23T07:39:03;10.83;;;5.43;;
4963;SDS011;2497;47.410;9.740;2023-03-23T07:41:30;14.30;;;6.23;;
4963;SDS011;2497;47.410;9.740;2023-03-23T07:43:58;7.87;;;5.73;;
4963;SDS011;2497;47.410;9.740;2023-03-23T07:46:25;11.00;;;5.37;;
4963;SDS011;2497;47.410;9.740;2023-03-23T07:48:52;16.40;;;5.60;;
4963;SDS011;2497;47.410;9.740;2023-03-23T07:51:19;8.60;;;5.97;;
4963;SDS011;2497;47.410;9.740;2023-03-23T07:53:48;10.93;;;5.53;;
4963;SDS011;2497;47.410;9.740;2023-03-23T07:56:16;16.27;;;5.30;;
4963;SDS011;2497;47.410;9.740;2023-03-23T07:58:44;14.80;;;5.10;;
4963;SDS011;2497;47.410;9.740;2023-03-23T08:01:12;11.20;;;5.23;;
4963;SDS011;2497;47.410;9.740;2023-03-23T08:03:39;10.37;;;4.90;;
4963;SDS011;2497;47.410;9.740;2023-03-23T08:06:07;14.90;;;5.77;;
4963;SDS011;2497;47.410;9.740;2023-03-23T08:08:35;10.30;;;5.20;;
4963;SDS011;2497;47.410;9.740;2023-03-23T08:11:04;12.83;;;4.63;;
4963;SDS011;2497;47.410;9.740;2023-03-23T08:13:34;9.37;;;5.10;;
4963;SDS011;2497;47.410;9.740;2023-03-23T08:16:01;17.97;;;4.73;;
4963;SDS011;2497;47.410;9.740;2023-03-23T08:18:29;10.43;;;5.30;;
4963;SDS011;2497;47.410;9.740;2023-03-23T08:20:56;11.40;;;5.43;;
4963;SDS011;2497;47.410;9.740;2023-03-23T08:23:23;11.43;;;5.10;;
4963;SDS011;2497;47.410;9.740;2023-03-23T08:25:50;10.73;;;5.20;;
4963;SDS011;2497;47.410;9.740;2023-03-23T08:28:20;7.67;;;5.00;;
4963;SDS011;2497;47.410;9.740;2023-03-23T08:30:47;10.23;;;5.80;;
4963;SDS011;2497;47.410;9.740;2023-03-23T08:33:14;11.10;;;4.60;;
4963;SDS011;2497;47.410;9.740;2023-03-23T08:35:42;10.20;;;5.13;;
4963;SDS011;2497;47.410;9.740;2023-03-23T08:38:09;9.33;;;5.23;;
4963;SDS011;2497;47.410;9.740;2023-03-23T08:40:38;11.87;;;5.10;;
4963;SDS011;2497;47.410;9.740;2023-03-23T08:43:05;8.50;;;4.23;;
4963;SDS011;2497;47.410;9.740;2023-03-23T08:45:34;7.43;;;4.40;;
4963;SDS011;2497;47.410;9.740;2023-03-23T08:48:01;8.23;;;4.60;;
4963;SDS011;2497;47.410;9.740;2023-03-23T08:50:29;9.00;;;4.50;;
4963;SDS011;2497;47.410;9.740;2023-03-23T08:52:56;9.17;;;5.40;;
4963;SDS011;2497;47.410;9.740;2023-03-23T08:55:24;9.53;;;5.20;;
4963;SDS011;2497;47.410;9.740;2023-03-23T08:57:51;7.37;;;4.73;;
4963;SDS011;2497;47.410;9.740;2023-03-23T09:00:19;13.83;;;5.07;;
4963;SDS011;2497;47.410;9.740;2023-03-23T09:02:51;6.33;;;4.13;;
4963;SDS011;2497;47.410;9.740;2023-03-23T09:05:21;6.63;;;4.50;;
4963;SDS011;2497;47.410;9.740;2023-03-23T09:07:50;7.27;;;3.97;;
4963;SDS011;2497;47.410;9.740;2023-03-23T09:10:19;11.03;;;5.20;;
4963;SDS011;2497;47.410;9.740;2023-03-23T09:12:47;10.43;;;5.07;;
4963;SDS011;2497;47.410;9.740;2023-03-23T09:15:16;11.50;;;5.23;;
4963;SDS011;2497;47.410;9.740;2023-03-23T09:17:44;8.03;;;4.30;;
4963;SDS011;2497;47.410;9.740;2023-03-23T09:20:17;6.00;;;4.47;;
4963;SDS011;2497;47.410;9.740;2023-03-23T09:22:46;8.93;;;5.50;;
4963;SDS011;2497;47.410;9.740;2023-03-23T09:25:15;8.23;;;5.37;;
4963;SDS011;2497;47.410;9.740;2023-03-23T09:27:46;10.97;;;5.30;;
4963;SDS011;2497;47.410;9.740;2023-03-23T09:30:17;8.50;;;4.57;;
4963;SDS011;2497;47.410;9.740;2023-03-23T09:32:46;14.57;;;5.67;;
4963;SDS011;2497;47.410;9.740;2023-03-23T09:35:15;10.47;;;5.20;;
4963;SDS011;2497;47.410;9.740;2023-03-23T09:37:46;13.27;;;5.43;;
4963;SDS011;2497;47.410;9.740;2023-03-23T09:40:16;10.00;;;5.77;;
4963;SDS011;2497;47.410;9.740;2023-03-23T09:42:54;8.27;;;5.10;;
4963;SDS011;2497;47.410;9.740;2023-03-23T09:45:31;13.03;;;5.63;;
4963;SDS011;2497;47.410;9.740;2023-03-23T09:50:57;27.77;;;6.00;;
4963;SDS011;2497;47.410;9.740;2023-03-23T09:53:30;11.07;;;6.13;;
4963;SDS011;2497;47.410;9.740;2023-03-23T09:56:03;22.53;;;6.30;;
4963;SDS011;2497;47.410;9.740;2023-03-23T09:58:38;9.83;;;5.70;;
4963;SDS011;2497;47.410;9.740;2023-03-23T10:01:12;16.30;;;5.87;;
4963;SDS011;2497;47.410;9.740;2023-03-23T10:03:44;11.17;;;5.80;;
4963;SDS011;2497;47.410;9.740;2023-03-23T10:06:15;12.57;;;5.10;;
4963;SDS011;2497;47.410;9.740;2023-03-23T10:08:44;11.90;;;6.40;;
4963;SDS011;2497;47.410;9.740;2023-03-23T10:11:17;9.53;;;5.57;;
4963;SDS011;2497;47.410;9.740;2023-03-23T10:14:01;9.40;;;5.80;;
4963;SDS011;2497;47.410;9.740;2023-03-23T10:16:36;12.13;;;6.23;;
4963;SDS011;2497;47.410;9.740;2023-03-23T10:19:08;12.70;;;5.70;;
4963;SDS011;2497;47.410;9.740;2023-03-23T10:21:40;10.83;;;5.67;;
4963;SDS011;2497;47.410;9.740;2023-03-23T10:24:13;9.03;;;5.67;;
4963;SDS011;2497;47.410;9.740;2023-03-23T10:26:46;14.30;;;6.57;;
4963;SDS011;2497;47.410;9.740;2023-03-23T10:29:22;13.03;;;5.50;;
4963;SDS011;2497;47.410;9.740;2023-03-23T10:31:53;7.37;;;4.47;;
4963;SDS011;2497;47.410;9.740;2023-03-23T10:34:28;9.77;;;4.70;;
4963;SDS011;2497;47.410;9.740;2023-03-23T10:37:05;10.33;;;5.10;;
4963;SDS011;2497;47.410;9.740;2023-03-23T10:39:40;7.57;;;4.50;;
4963;SDS011;2497;47.410;9.740;2023-03-23T10:42:12;11.00;;;5.63;;
4963;SDS011;2497;47.410;9.740;2023-03-23T10:44:47;8.67;;;5.10;;
4963;SDS011;2497;47.410;9.740;2023-03-23T10:47:15;8.43;;;4.90;;
4963;SDS011;2497;47.410;9.740;2023-03-23T10:49:43;8.67;;;4.50;;
4963;SDS011;2497;47.410;9.740;2023-03-23T10:52:20;6.20;;;4.30;;
4963;SDS011;2497;47.410;9.740;2023-03-23T10:54:57;7.77;;;4.57;;
4963;SDS011;2497;47.410;9.740;2023-03-23T10:57:30;6.27;;;4.00;;
4963;SDS011;2497;47.410;9.740;2023-03-23T10:59:59;8.90;;;4.07;;
4963;SDS011;2497;47.410;9.740;2023-03-23T11:02:35;7.73;;;4.10;;
4963;SDS011;2497;47.410;9.740;2023-03-23T11:05:07;7.97;;;3.93;;
4963;SDS011;2497;47.410;9.740;2023-03-23T11:07:47;11.00;;;4.53;;
4963;SDS011;2497;47.410;9.740;2023-03-23T11:10:17;7.43;;;4.37;;
4963;SDS011;2497;47.410;9.740;2023-03-23T11:12:49;7.77;;;4.73;;
4963;SDS011;2497;47.410;9.740;2023-03-23T11:15:23;7.43;;;3.87;;
4963;SDS011;2497;47.410;9.740;2023-03-23T11:17:58;7.73;;;4.20;;
4963;SDS011;2497;47.410;9.740;2023-03-23T11:20:27;4.60;;;3.60;;
4963;SDS011;2497;47.410;9.740;2023-03-23T11:22:57;4.70;;;3.60;;
4963;SDS011;2497;47.410;9.740;2023-03-23T11:25:24;9.17;;;4.07;;
4963;SDS011;2497;47.410;9.740;2023-03-23T11:27:52;9.63;;;4.67;;
4963;SDS011;2497;47.410;9.740;2023-03-23T11:30:22;13.33;;;4.07;;
4963;SDS011;2497;47.410;9.740;2023-03-23T11:32:52;9.90;;;4.03;;
4963;SDS011;2497;47.410;9.740;2023-03-23T11:35:22;6.93;;;3.70;;
4963;SDS011;2497;47.410;9.740;2023-03-23T11:37:53;5.23;;;3.33;;
4963;SDS011;2497;47.410;9.740;2023-03-23T11:40:24;8.83;;;4.30;;
4963;SDS011;2497;47.410;9.740;2023-03-23T11:42:59;8.30;;;5.00;;
4963;SDS011;2497;47.410;9.740;2023-03-23T11:45:33;7.80;;;4.23;;
4963;SDS011;2497;47.410;9.740;2023-03-23T11:48:10;8.13;;;4.70;;
4963;SDS011;2497;47.410;9.740;2023-03-23T11:50:45;7.40;;;4.40;;
4963;SDS011;2497;47.410;9.740;2023-03-23T11:53:21;5.40;;;3.53;;
4963;SDS011;2497;47.410;9.740;2023-03-23T11:56:00;6.40;;;3.37;;
4963;SDS011;2497;47.410;9.740;2023-03-23T11:58:33;5.53;;;3.40;;
4963;SDS011;2497;47.410;9.740;2023-03-23T12:01:02;6.63;;;4.07;;
4963;SDS011;2497;47.410;9.740;2023-03-23T12:06:24;7.27;;;4.20;;
4963;SDS011;2497;47.410;9.740;2023-03-23T12:09:00;6.37;;;3.70;;
4963;SDS011;2497;47.410;9.740;2023-03-23T12:11:38;5.03;;;3.30;;
4963;SDS011;2497;47.410;9.740;2023-03-23T12:14:14;8.70;;;3.77;;
4963;SDS011;2497;47.410;9.740;2023-03-23T12:16:52;5.93;;;3.40;;
4963;SDS011;2497;47.410;9.740;2023-03-23T12:19:32;5.00;;;3.40;;
4963;SDS011;2497;47.410;9.740;2023-03-23T12:22:09;20.73;;;3.40;;
4963;SDS011;2497;47.410;9.740;2023-03-23T12:24:46;11.23;;;4.10;;
4963;SDS011;2497;47.410;9.740;2023-03-23T12:27:29;4.63;;;2.40;;
4963;SDS011;2497;47.410;9.740;2023-03-23T12:30:09;4.20;;;2.00;;
4963;SDS011;2497;47.410;9.740;2023-03-23T12:32:53;3.70;;;2.23;;
4963;SDS011;2497;47.410;9.740;2023-03-23T12:35:47;3.20;;;2.27;;
4963;SDS011;2497;47.410;9.740;2023-03-23T12:38:25;8.80;;;2.57;;
4963;SDS011;2497;47.410;9.740;2023-03-23T12:41:08;3.77;;;2.07;;
4963;SDS011;2497;47.410;9.740;2023-03-23T12:43:46;5.53;;;2.47;;
4963;SDS011;2497;47.410;9.740;2023-03-23T12:46:32;4.93;;;1.97;;
4963;SDS011;2497;47.410;9.740;2023-03-23T12:49:21;2.50;;;2.30;;
4963;SDS011;2497;47.410;9.740;2023-03-23T12:51:54;8.03;;;2.53;;
4963;SDS011;2497;47.410;9.740;2023-03-23T12:54:27;6.30;;;2.50;;
4963;SDS011;2497;47.410;9.740;2023-03-23T12:56:59;2.93;;;2.23;;
4963;SDS011;2497;47.410;9.740;2023-03-23T12:59:32;3.30;;;2.50;;
4963;SDS011;2497;47.410;9.740;2023-03-23T13:02:09;3.07;;;2.07;;
4963;SDS011;2497;47.410;9.740;2023-03-23T13:04:43;9.17;;;2.50;;
4963;SDS011;2497;47.410;9.740;2023-03-23T13:07:13;5.83;;;2.20;;
4963;SDS011;2497;47.410;9.740;2023-03-23T13:09:46;4.27;;;2.40;;
4963;SDS011;2497;47.410;9.740;2023-03-23T13:12:19;4.37;;;2.70;;
4963;SDS011;2497;47.410;9.740;2023-03-23T13:14:53;3.93;;;2.23;;
4963;SDS011;2497;47.410;9.740;2023-03-23T13:17:35;7.33;;;2.17;;
4963;SDS011;2497;47.410;9.740;2023-03-23T13:20:24;4.67;;;2.40;;
4963;SDS011;2497;47.410;9.740;2023-03-23T13:23:03;2.80;;;2.20;;
4963;SDS011;2497;47.410;9.740;2023-03-23T13:25:54;4.67;;;2.73;;
4963;SDS011;2497;47.410;9.740;2023-03-23T13:28:23;2.50;;;1.83;;
4963;SDS011;2497;47.410;9.740;2023-03-23T13:30:58;3.17;;;2.17;;
4963;SDS011;2497;47.410;9.740;2023-03-23T13:33:31;2.40;;;2.13;;
4963;SDS011;2497;47.410;9.740;2023-03-23T13:36:04;7.00;;;2.40;;
4963;SDS011;2497;47.410;9.740;2023-03-23T13:38:35;3.70;;;2.20;;
4963;SDS011;2497;47.410;9.740;2023-03-23T13:41:07;2.40;;;2.00;;
4963;SDS011;2497;47.410;9.740;2023-03-23T13:43:37;7.93;;;2.43;;
4963;SDS011;2497;47.410;9.740;2023-03-23T13:46:08;4.07;;;2.00;;
4963;SDS011;2497;47.410;9.740;2023-03-23T13:48:43;5.10;;;2.40;;
4963;SDS011;2497;47.410;9.740;2023-03-23T13:54:05;4.03;;;2.10;;
4963;SDS011;2497;47.410;9.740;2023-03-23T13:56:52;5.93;;;1.83;;
4963;SDS011;2497;47.410;9.740;2023-03-23T13:59:32;2.60;;;1.80;;
4963;SDS011;2497;47.410;9.740;2023-03-23T14:04:54;4.10;;;2.00;;
4963;SDS011;2497;47.410;9.740;2023-03-23T14:07:22;5.17;;;2.40;;
4963;SDS011;2497;47.410;9.740;2023-03-23T14:09:50;4.23;;;1.93;;
4963;SDS011;2497;47.410;9.740;2023-03-23T14:12:19;3.63;;;1.90;;
4963;SDS011;2497;47.410;9.740;2023-03-23T14:14:49;2.13;;;1.70;;
4963;SDS011;2497;47.410;9.740;2023-03-23T14:17:25;2.17;;;1.73;;
4963;SDS011;2497;47.410;9.740;2023-03-23T14:19:53;5.57;;;2.07;;
4963;SDS011;2497;47.410;9.740;2023-03-23T14:22:23;2.60;;;1.73;;
4963;SDS011;2497;47.410;9.740;2023-03-23T14:24:52;5.53;;;2.07;;
4963;SDS011;2497;47.410;9.740;2023-03-23T14:27:30;3.03;;;2.07;;
4963;SDS011;2497;47.410;9.740;2023-03-23T14:29:57;2.83;;;1.73;;
4963;SDS011;2497;47.410;9.740;2023-03-23T14:32:27;2.73;;;1.67;;
4963;SDS011;2497;47.410;9.740;2023-03-23T14:34:56;4.17;;;2.07;;
4963;SDS011;2497;47.410;9.740;2023-03-23T14:37:24;2.43;;;2.10;;
4963;SDS011;2497;47.410;9.740;2023-03-23T14:39:53;4.37;;;2.27;;
4963;SDS011;2497;47.410;9.740;2023-03-23T14:42:23;5.03;;;2.30;;
4963;SDS011;2497;47.410;9.740;2023-03-23T14:44:53;3.27;;;2.13;;
4963;SDS011;2497;47.410;9.740;2023-03-23T14:47:21;3.03;;;1.97;;
4963;SDS011;2497;47.410;9.740;2023-03-23T14:49:53;4.03;;;2.37;;
4963;SDS011;2497;47.410;9.740;2023-03-23T14:52:22;4.60;;;2.27;;
4963;SDS011;2497;47.410;9.740;2023-03-23T14:54:51;3.03;;;2.07;;
4963;SDS011;2497;47.410;9.740;2023-03-23T14:57:19;5.23;;;2.47;;
4963;SDS011;2497;47.410;9.740;2023-03-23T14:59:52;6.90;;;2.00;;
4963;SDS011;2497;47.410;9.740;2023-03-23T15:02:29;7.80;;;2.40;;
4963;SDS011;2497;47.410;9.740;2023-03-23T15:05:00;4.53;;;2.33;;
4963;SDS011;2497;47.410;9.740;2023-03-23T15:07:32;3.90;;;2.13;;
4963;SDS011;2497;47.410;9.740;2023-03-23T15:10:01;3.87;;;2.33;;
4963;SDS011;2497;47.410;9.740;2023-03-23T15:12:31;8.17;;;2.33;;
4963;SDS011;2497;47.410;9.740;2023-03-23T15:15:00;3.40;;;2.13;;
4963;SDS011;2497;47.410;9.740;2023-03-23T15:17:31;6.43;;;2.17;;
4963;SDS011;2497;47.410;9.740;2023-03-23T15:20:09;3.67;;;2.30;;
4963;SDS011;2497;47.410;9.740;2023-03-23T15:22:44;3.73;;;2.27;;
4963;SDS011;2497;47.410;9.740;2023-03-23T15:25:18;6.13;;;3.30;;
4963;SDS011;2497;47.410;9.740;2023-03-23T15:27:58;4.60;;;2.43;;
4963;SDS011;2497;47.410;9.740;2023-03-23T15:30:45;4.30;;;2.10;;
4963;SDS011;2497;47.410;9.740;2023-03-23T15:33:14;3.63;;;3.03;;
4963;SDS011;2497;47.410;9.740;2023-03-23T15:35:49;3.13;;;2.17;;
4963;SDS011;2497;47.410;9.740;2023-03-23T15:38:18;10.77;;;2.70;;
4963;SDS011;2497;47.410;9.740;2023-03-23T15:40:49;5.10;;;2.20;;
4963;SDS011;2497;47.410;9.740;2023-03-23T15:43:17;3.03;;;2.70;;
4963;SDS011;2497;47.410;9.740;2023-03-23T15:45:53;5.30;;;2.20;;
4963;SDS011;2497;47.410;9.740;2023-03-23T15:48:23;4.40;;;2.50;;
4963;SDS011;2497;47.410;9.740;2023-03-23T15:50:52;6.70;;;2.33;;
4963;SDS011;2497;47.410;9.740;2023-03-23T15:53:25;4.60;;;2.40;;
4963;SDS011;2497;47.410;9.740;2023-03-23T15:55:57;4.77;;;2.87;;